createdAt,value
2022-11-30T00:05:34.870Z,4.50
2022-11-30T00:11:59.165Z,4.50
2022-11-30T00:18:18.190Z,4.40
2022-11-30T00:24:42.505Z,4.30
2022-11-30T00:31:07.181Z,4.60
2022-11-30T00:37:24.197Z,4.20
2022-11-30T00:43:48.460Z,4.60
2022-11-30T00:50:12.768Z,4.10
2022-11-30T00:56:37.294Z,4.40
2022-11-30T01:03:01.551Z,3.70
2022-11-30T01:09:25.876Z,4.30
2022-11-30T01:15:50.272Z,4.20
2022-11-30T01:22:14.616Z,3.70
2022-11-30T01:28:39.218Z,4.30
2022-11-30T01:35:03.539Z,3.70
2022-11-30T01:41:30.672Z,3.70
2022-11-30T01:47:57.898Z,4.10
2022-11-30T01:54:22.304Z,4.30
2022-11-30T02:00:46.833Z,4.10
2022-11-30T02:07:11.159Z,3.90
2022-11-30T02:13:50.428Z,3.40
2022-11-30T02:20:17.380Z,4.00
2022-11-30T02:26:41.700Z,3.80
2022-11-30T02:33:39.893Z,3.80
2022-11-30T02:40:04.422Z,4.30
2022-11-30T02:46:31.741Z,3.90
2022-11-30T02:52:56.208Z,4.00
2022-11-30T02:59:20.610Z,3.80
2022-11-30T03:05:45.031Z,4.00
2022-11-30T03:12:09.465Z,3.50
2022-11-30T03:18:33.960Z,3.90
2022-11-30T03:24:58.376Z,3.70
2022-11-30T03:31:22.697Z,3.90
2022-11-30T03:37:47.082Z,3.90
2022-11-30T03:44:11.360Z,3.80
2022-11-30T03:50:35.709Z,3.90
2022-11-30T03:56:59.996Z,4.10
2022-11-30T04:03:18.229Z,3.60
2022-11-30T04:09:42.603Z,3.70
2022-11-30T04:16:07.174Z,3.80
2022-11-30T04:22:31.525Z,4.10
2022-11-30T04:28:56.265Z,3.50
2022-11-30T04:35:20.562Z,4.20
2022-11-30T04:41:37.476Z,3.70
2022-11-30T04:48:01.894Z,4.00
2022-11-30T04:54:26.201Z,3.60
2022-11-30T05:00:50.857Z,3.70
2022-11-30T05:07:15.249Z,4.10
2022-11-30T05:13:39.537Z,3.90
2022-11-30T05:20:03.603Z,3.50
2022-11-30T05:26:27.986Z,4.00
2022-11-30T05:32:51.562Z,3.20
2022-11-30T05:39:15.907Z,3.70
2022-11-30T05:45:40.414Z,3.50
2022-11-30T05:52:13.669Z,3.40
2022-11-30T05:58:31.703Z,3.30
2022-11-30T06:04:56.073Z,3.20
2022-11-30T06:11:19.093Z,3.40
2022-11-30T06:17:43.395Z,3.50
2022-11-30T06:24:06.357Z,3.40
2022-11-30T06:30:30.813Z,3.40
2022-11-30T06:36:55.202Z,3.30
2022-11-30T06:43:19.602Z,3.10
2022-11-30T06:49:42.564Z,3.30
2022-11-30T06:56:10.466Z,3.50
2022-11-30T07:02:35.269Z,3.40
2022-11-30T07:08:59.704Z,3.30
2022-11-30T07:15:24.143Z,3.90
2022-11-30T07:21:48.555Z,3.40
2022-11-30T07:28:12.929Z,3.20
2022-11-30T07:34:37.343Z,3.30
2022-11-30T07:41:01.669Z,3.60
2022-11-30T07:47:25.997Z,3.30
2022-11-30T07:53:50.296Z,3.20
2022-11-30T08:00:14.636Z,3.30
2022-11-30T08:06:41.960Z,3.50
2022-11-30T08:13:06.398Z,3.40
2022-11-30T08:19:30.727Z,3.10
2022-11-30T08:25:55.228Z,2.80
2022-11-30T08:32:19.860Z,3.40
2022-11-30T08:38:44.349Z,3.40
2022-11-30T08:45:08.749Z,3.40
2022-11-30T08:51:53.779Z,3.20
2022-11-30T08:58:17.569Z,3.20
2022-11-30T09:04:41.869Z,3.40
2022-11-30T09:11:06.364Z,3.30
2022-11-30T09:17:30.721Z,3.60
2022-11-30T09:23:55.016Z,3.20
2022-11-30T09:30:19.466Z,3.20
2022-11-30T09:36:43.814Z,3.50
2022-11-30T09:43:14.141Z,3.20
2022-11-30T09:50:00.057Z,3.80
2022-11-30T09:56:39.810Z,3.30
2022-11-30T10:03:04.338Z,3.60
2022-11-30T10:09:49.442Z,3.30
2022-11-30T10:16:30.238Z,3.50
2022-11-30T10:23:00.766Z,3.70
2022-11-30T10:29:30.987Z,3.70
2022-11-30T10:35:57.986Z,4.00
2022-11-30T10:42:22.397Z,3.50
2022-11-30T10:48:46.800Z,3.70
2022-11-30T10:55:16.909Z,3.50
2022-11-30T11:01:44.072Z,4.00
2022-11-30T11:08:08.892Z,3.50
2022-11-30T11:14:38.199Z,4.70
2022-11-30T11:21:11.396Z,3.90
2022-11-30T11:27:39.837Z,4.30
2022-11-30T11:34:13.652Z,4.10
2022-11-30T11:40:38.111Z,4.00
2022-11-30T11:47:11.588Z,4.20
2022-11-30T11:53:53.341Z,4.20
2022-11-30T12:00:30.400Z,4.30
2022-11-30T12:06:54.686Z,4.90
2022-11-30T12:13:19.076Z,5.50
2022-11-30T12:19:58.304Z,5.10
2022-11-30T12:26:40.824Z,5.00
2022-11-30T12:33:25.240Z,4.60
2022-11-30T12:40:04.722Z,5.00
2022-11-30T12:46:32.347Z,5.50
2022-11-30T12:52:55.663Z,5.30
2022-11-30T12:59:20.507Z,5.50
2022-11-30T13:05:47.747Z,5.30
2022-11-30T13:12:14.828Z,5.00
2022-11-30T13:18:39.352Z,5.80
2022-11-30T13:25:15.764Z,5.30
2022-11-30T13:31:46.128Z,5.30
2022-11-30T13:38:35.854Z,5.40
2022-11-30T13:45:13.371Z,5.50
2022-11-30T13:51:50.225Z,5.80
2022-11-30T13:58:30.294Z,5.30
2022-11-30T14:04:56.367Z,5.30
2022-11-30T14:11:29.893Z,5.60
2022-11-30T14:17:52.549Z,5.80
2022-11-30T14:24:42.090Z,5.30
2022-11-30T14:31:06.931Z,5.40
2022-11-30T14:37:40.098Z,5.60
2022-11-30T14:44:04.502Z,5.50
2022-11-30T14:50:28.929Z,6.20
2022-11-30T14:57:02.045Z,6.40
2022-11-30T15:03:26.348Z,6.20
2022-11-30T15:09:51.185Z,7.20
2022-11-30T15:16:18.603Z,7.10
2022-11-30T15:22:46.536Z,6.90
2022-11-30T15:29:13.598Z,7.80
2022-11-30T15:35:57.399Z,7.40
2022-11-30T15:42:22.283Z,6.60
2022-11-30T15:48:46.725Z,6.10
2022-11-30T15:55:22.949Z,7.10
2022-11-30T16:01:47.516Z,6.40
2022-11-30T16:08:17.907Z,6.80
2022-11-30T16:14:42.285Z,7.20
2022-11-30T16:21:06.770Z,7.00
2022-11-30T16:27:31.972Z,7.00
2022-11-30T16:33:56.232Z,6.90
2022-11-30T16:40:20.500Z,8.20
2022-11-30T16:46:44.894Z,7.90
2022-11-30T16:53:09.278Z,7.60
2022-11-30T16:59:33.800Z,7.30
2022-11-30T17:05:58.124Z,7.90
2022-11-30T17:12:34.469Z,8.40
2022-11-30T17:18:58.826Z,9.00
2022-11-30T17:25:24.023Z,8.20
2022-11-30T17:31:48.445Z,8.00
2022-11-30T17:38:12.856Z,13.10
2022-11-30T17:44:37.244Z,16.40
2022-11-30T17:51:01.551Z,15.10
2022-11-30T17:57:25.919Z,14.30
2022-11-30T18:03:53.178Z,13.90
2022-11-30T18:10:17.533Z,12.70
2022-11-30T18:16:47.522Z,12.70
2022-11-30T18:23:11.844Z,12.20
2022-11-30T18:29:36.156Z,12.20
2022-11-30T18:36:00.424Z,11.80
2022-11-30T18:42:24.749Z,11.00
2022-11-30T18:48:49.053Z,11.80
2022-11-30T18:55:13.375Z,11.70
2022-11-30T19:01:37.956Z,11.20
2022-11-30T19:08:03.244Z,10.20
2022-11-30T19:14:28.583Z,10.20
2022-11-30T19:20:54.208Z,9.90
2022-11-30T19:27:19.624Z,9.40
2022-11-30T19:33:44.779Z,9.80
2022-11-30T19:40:10.106Z,9.80
2022-11-30T19:46:35.622Z,9.50
2022-11-30T19:53:00.896Z,9.10
2022-11-30T19:59:25.866Z,9.00
2022-11-30T20:05:51.025Z,9.00
2022-11-30T20:12:15.729Z,9.30
2022-11-30T20:18:45.458Z,9.30
2022-11-30T20:25:10.863Z,9.20
2022-11-30T20:31:35.504Z,8.80
2022-11-30T20:37:59.888Z,8.50
2022-11-30T20:44:24.257Z,9.40
2022-11-30T20:51:14.102Z,8.10
2022-11-30T20:57:33.172Z,8.30
2022-11-30T21:03:57.522Z,8.00
2022-11-30T21:10:22.049Z,7.90
2022-11-30T21:16:46.529Z,7.70
2022-11-30T21:22:53.726Z,7.90
2022-11-30T21:29:18.189Z,9.00
2022-11-30T21:35:42.448Z,8.00
2022-11-30T21:42:06.751Z,8.00
2022-11-30T21:48:31.006Z,7.10
2022-11-30T21:54:55.114Z,7.00
2022-11-30T22:01:19.611Z,7.40
2022-11-30T22:07:44.056Z,7.00
2022-11-30T22:14:08.482Z,6.80
2022-11-30T22:20:32.819Z,6.90
2022-11-30T22:26:57.191Z,6.80
2022-11-30T22:33:21.565Z,7.20
2022-11-30T22:39:46.310Z,7.10
2022-11-30T22:46:11.308Z,6.40
2022-11-30T22:53:01.376Z,6.70
2022-11-30T22:59:19.910Z,6.60
2022-11-30T23:05:44.217Z,6.10
2022-11-30T23:12:08.638Z,5.80
2022-11-30T23:18:33.034Z,6.70
2022-11-30T23:24:57.328Z,6.20
2022-11-30T23:31:33.916Z,6.20
2022-11-30T23:38:00.099Z,6.80
2022-11-30T23:44:24.530Z,5.80
2022-11-30T23:50:49.051Z,6.40
2022-11-30T23:57:13.352Z,5.90
